Time;durP1;ratioP1;P1;durP2;ratioP2;P2;SDS_P1;SDS_P2;PMS_P1;PMS_P2;Temp;Humidity;BMP_temperature;BMP_pressure;BME280_temperature;BME280_humidity;BME280_pressure;Samples;Min_cycle;Max_cycle;Signal;HPM_P1;HPM_P2
2021/05/20 00:02:16;;;;;;;12.83;7.13;;;9.60;99.90;;;;;;4734545;30;20242;-85
2021/05/20 00:04:42;;;;;;;11.10;7.70;;;9.60;99.90;;;;;;4734242;30;20264;-86
2021/05/20 00:07:09;;;;;;;16.33;7.93;;;;;;;;;;4734985;30;20195;-85
2021/05/20 00:09:36;;;;;;;13.07;8.90;;;9.90;99.90;;;;;;4719286;30;20646;-85
2021/05/20 00:12:02;;;;;;;11.20;7.87;;;9.60;99.90;;;;;;4734332;30;20203;-86
2021/05/20 00:14:28;;;;;;;10.73;7.17;;;9.60;99.90;;;;;;4718650;30;20198;-85
2021/05/20 00:16:55;;;;;;;11.40;7.83;;;9.50;99.90;;;;;;4713759;30;20199;-85
2021/05/20 00:19:21;;;;;;;14.67;7.87;;;;;;;;;;4721428;30;20531;-86
2021/05/20 00:21:47;;;;;;;14.03;8.13;;;9.30;99.90;;;;;;4738227;30;20719;-85
2021/05/20 00:24:12;;;;;;;11.40;8.63;;;9.30;99.90;;;;;;4722660;30;20206;-84
2021/05/20 00:26:38;;;;;;;14.23;8.10;;;9.40;99.90;;;;;;4737141;30;20192;-85
2021/05/20 00:29:04;;;;;;;13.13;8.43;;;9.40;99.90;;;;;;4736700;30;20278;-86
2021/05/20 00:31:30;;;;;;;15.03;8.73;;;;;;;;;;4722076;30;20192;-85
2021/05/20 00:33:56;;;;;;;12.67;8.97;;;;;;;;;;4722004;30;20199;-86
2021/05/20 00:36:22;;;;;;;11.10;7.47;;;;;;;;;;4738216;30;20195;-85
2021/05/20 00:38:49;;;;;;;12.20;7.83;;;;;;;;;;4737489;30;20658;-84
2021/05/20 00:41:15;;;;;;;13.47;9.10;;;;;;;;;;4722002;30;20234;-85
2021/05/20 00:43:41;;;;;;;14.13;7.97;;;9.60;99.90;;;;;;4737657;30;20245;-85
2021/05/20 00:46:07;;;;;;;13.53;8.87;;;;;;;;;;4737205;30;20346;-85
2021/05/20 00:48:34;;;;;;;11.27;8.10;;;;;;;;;;4736733;30;20230;-84
2021/05/20 00:51:00;;;;;;;12.33;8.27;;;;;;;;;;4736158;30;20211;-85
2021/05/20 00:53:26;;;;;;;13.20;7.90;;;;;;;;;;4736346;30;20233;-85
2021/05/20 00:55:52;;;;;;;15.60;9.30;;;8.90;99.90;;;;;;4736857;30;20199;-86
2021/05/20 00:58:20;;;;;;;13.40;8.30;;;9.20;99.90;;;;;;4737021;30;20247;-85
2021/05/20 01:00:50;;;;;;;14.90;9.47;;;9.20;99.90;;;;;;4736213;30;20214;-87
2021/05/20 01:03:16;;;;;;;13.60;9.10;;;;;;;;;;4736450;30;20187;-85
2021/05/20 01:05:42;;;;;;;19.90;9.33;;;;;;;;;;4736049;30;20219;-85
2021/05/20 01:08:08;;;;;;;12.90;8.97;;;;;;;;;;4721001;30;20210;-85
2021/05/20 01:10:33;;;;;;;16.40;9.60;;;9.00;99.90;;;;;;4721684;30;20195;-85
2021/05/20 01:12:59;;;;;;;17.60;9.70;;;;;;;;;;4721190;30;20187;-85
2021/05/20 01:15:27;;;;;;;16.10;10.00;;;9.10;99.90;;;;;;4737101;30;20206;-85
2021/05/20 01:17:58;;;;;;;14.43;9.80;;;9.20;99.90;;;;;;4721581;30;20262;-84
2021/05/20 01:20:27;;;;;;;15.57;9.57;;;9.10;99.90;;;;;;4735951;30;20235;-85
2021/05/20 01:23:04;;;;;;;14.77;9.13;;;9.10;99.90;;;;;;4721134;30;20206;-85
2021/05/20 01:25:31;;;;;;;17.73;10.30;;;9.20;99.90;;;;;;4721238;30;20251;-85
2021/05/20 01:28:04;;;;;;;12.63;9.60;;;;;;;;;;4706301;30;20403;-85
2021/05/20 01:30:35;;;;;;;16.33;10.07;;;8.90;99.90;;;;;;4735608;30;20597;-85
2021/05/20 01:33:01;;;;;;;12.87;9.07;;;;;;;;;;4736410;30;20183;-86
2021/05/20 01:35:27;;;;;;;15.33;10.07;;;;;;;;;;4735852;30;20198;-85
2021/05/20 01:41:08;;;;;;;15.73;9.90;;;9.20;99.90;;;;;;4715972;30;20199;-86
2021/05/20 01:43:34;;;;;;;14.87;9.57;;;9.20;99.90;;;;;;4721299;30;20286;-85
2021/05/20 01:46:00;;;;;;;13.93;8.80;;;9.20;99.90;;;;;;4720622;30;20223;-86
2021/05/20 01:48:38;;;;;;;12.83;9.30;;;9.50;99.90;;;;;;4736750;30;20611;-86
2021/05/20 01:51:12;;;;;;;13.27;9.43;;;9.10;99.90;;;;;;4736540;30;20237;-86
2021/05/20 01:53:41;;;;;;;13.73;9.33;;;9.10;99.90;;;;;;4720760;30;20195;-85
2021/05/20 01:56:08;;;;;;;14.80;9.53;;;9.10;99.90;;;;;;4720820;30;20195;-86
2021/05/20 01:58:36;;;;;;;18.13;10.23;;;9.20;99.90;;;;;;4720641;30;20184;-85
2021/05/20 02:01:03;;;;;;;14.73;10.67;;;9.20;99.90;;;;;;4736072;30;20215;-86
2021/05/20 02:03:29;;;;;;;15.17;11.00;;;;;;;;;;4720661;30;20604;-85
2021/05/20 02:05:57;;;;;;;18.40;11.63;;;;;;;;;;4720423;30;20227;-86
2021/05/20 02:08:23;;;;;;;17.83;11.40;;;;;;;;;;4720604;30;20206;-85
2021/05/20 02:10:49;;;;;;;19.27;11.90;;;;;;;;;;4706169;30;20569;-85
2021/05/20 02:13:15;;;;;;;17.27;10.93;;;;;;;;;;4735951;30;20208;-85
2021/05/20 02:15:41;;;;;;;22.97;13.07;;;9.30;99.90;;;;;;4720291;30;20199;-85
2021/05/20 02:18:07;;;;;;;16.60;11.63;;;;;;;;;;4720398;30;20696;-85
2021/05/20 02:20:34;;;;;;;21.93;13.33;;;9.40;99.90;;;;;;4705767;30;20251;-85
2021/05/20 02:23:00;;;;;;;22.93;12.70;;;9.60;99.90;;;;;;4735795;30;20269;-86
2021/05/20 02:25:27;;;;;;;20.77;12.53;;;;;;;;;;4736087;30;20277;-85
2021/05/20 02:27:53;;;;;;;21.77;13.73;;;;;;;;;;4720288;30;20195;-85
2021/05/20 02:30:19;;;;;;;19.87;12.33;;;9.30;99.90;;;;;;4735603;30;20646;-85
2021/05/20 02:32:45;;;;;;;22.13;13.03;;;;;;;;;;4705866;30;20199;-85
2021/05/20 02:35:12;;;;;;;19.43;12.27;;;9.60;99.90;;;;;;4720223;30;20237;-85
2021/05/20 02:37:38;;;;;;;19.67;11.77;;;9.40;99.90;;;;;;4719966;30;20191;-85
2021/05/20 02:40:06;;;;;;;21.63;13.10;;;9.20;99.90;;;;;;4719883;30;20195;-85
2021/05/20 02:42:32;;;;;;;23.10;13.37;;;;;;;;;;4705664;30;20245;-86
2021/05/20 02:44:58;;;;;;;23.63;11.63;;;;;;;;;;4718804;30;20723;-86
2021/05/20 02:47:24;;;;;;;21.73;12.80;;;;;;;;;;4720022;30;20662;-85
2021/05/20 02:49:50;;;;;;;26.00;14.13;;;9.80;99.90;;;;;;4720128;30;20270;-86
2021/05/20 02:52:16;;;;;;;22.60;13.23;;;;;;;;;;4734260;30;20286;-85
2021/05/20 02:54:42;;;;;;;19.90;12.77;;;9.20;99.90;;;;;;4705629;30;20638;-85
2021/05/20 02:57:08;;;;;;;22.40;13.23;;;9.30;99.90;;;;;;4719674;30;20238;-85
2021/05/20 02:59:36;;;;;;;19.77;11.90;;;9.30;99.90;;;;;;4735872;30;20231;-86
2021/05/20 03:02:04;;;;;;;20.73;12.97;;;;;;;;;;4705472;30;20617;-85
2021/05/20 03:04:30;;;;;;;20.10;13.07;;;;;;;;;;4735679;30;20184;-85
2021/05/20 03:06:56;;;;;;;23.93;13.23;;;;;;;;;;4719661;30;20199;-86
2021/05/20 03:09:22;;;;;;;19.90;12.40;;;;;;;;;;4704931;30;20199;-86
2021/05/20 03:11:48;;;;;;;20.23;12.87;;;;;;;;;;4735489;30;20200;-85
2021/05/20 03:14:14;;;;;;;16.80;12.03;;;;;;;;;;4703420;30;20657;-85
2021/05/20 03:16:40;;;;;;;20.87;12.10;;;;;;;;;;4716902;30;20202;-86
2021/05/20 03:19:06;;;;;;;23.87;12.07;;;9.50;99.90;;;;;;4729167;30;20208;-85
2021/05/20 03:21:31;;;;;;;19.00;11.73;;;9.60;99.90;;;;;;4688829;30;20713;-85
2021/05/20 03:23:57;;;;;;;18.07;11.53;;;9.50;99.90;;;;;;4703695;30;20206;-85
2021/05/20 03:26:23;;;;;;;22.33;11.63;;;;;;;;;;4703387;30;20267;-83
2021/05/20 03:28:49;;;;;;;16.77;10.77;;;7.80;99.90;;;;;;4731281;30;20207;-85
2021/05/20 03:31:15;;;;;;;16.87;10.70;;;9.20;99.90;;;;;;4721420;30;20529;-86
2021/05/20 03:33:43;;;;;;;17.23;10.80;;;;;;;;;;4689011;30;20853;-85
2021/05/20 03:36:09;;;;;;;17.07;10.50;;;;;;;;;;4735804;30;20202;-85
2021/05/20 03:38:35;;;;;;;12.97;9.00;;;;;;;;;;4702663;30;20199;-86
2021/05/20 03:41:01;;;;;;;16.30;9.87;;;;;;;;;;4716887;30;20282;-89
2021/05/20 03:43:31;;;;;;;14.13;8.87;;;9.60;99.90;;;;;;4716574;30;20195;-86
2021/05/20 03:45:57;;;;;;;11.27;8.47;;;9.80;99.90;;;;;;4717158;30;20234;-85
2021/05/20 03:48:23;;;;;;;12.67;8.63;;;;;;;;;;4702551;30;20199;-85
2021/05/20 03:50:49;;;;;;;13.67;9.37;;;;;;;;;;4717624;30;20206;-85
2021/05/20 03:53:15;;;;;;;15.37;8.80;;;10.00;99.90;;;;;;4716942;30;20207;-85
2021/05/20 03:55:41;;;;;;;13.83;9.20;;;;;;;;;;4717048;30;20568;-85
2021/05/20 03:58:06;;;;;;;10.30;8.00;;;9.80;99.90;;;;;;4702226;30;20752;-86
2021/05/20 04:00:32;;;;;;;13.60;8.90;;;;;;;;;;4717586;30;20310;-85
2021/05/20 04:02:58;;;;;;;15.23;8.43;;;9.60;99.90;;;;;;4731964;30;20562;-85
2021/05/20 04:05:24;;;;;;;14.37;8.40;;;;;;;;;;4717032;30;20258;-87
2021/05/20 04:07:50;;;;;;;14.60;8.70;;;;;;;;;;4716957;30;20692;-86
2021/05/20 04:10:16;;;;;;;14.53;8.87;;;;;;;;;;4732781;30;20211;-85
2021/05/20 04:12:42;;;;;;;13.30;8.33;;;9.70;99.90;;;;;;4717393;30;20202;-85
2021/05/20 04:15:08;;;;;;;14.40;9.17;;;9.80;99.90;;;;;;4717233;30;20210;-87
2021/05/20 04:17:34;;;;;;;11.93;8.50;;;;;;;;;;4687926;30;20196;-87
2021/05/20 04:20:00;;;;;;;12.80;8.60;;;9.90;99.90;;;;;;4716810;30;20274;-86
2021/05/20 04:22:25;;;;;;;11.10;8.13;;;9.90;99.90;;;;;;4715154;30;20592;-87
2021/05/20 04:24:51;;;;;;;15.27;9.30;;;;;;;;;;4702283;30;20207;-87
2021/05/20 04:27:17;;;;;;;14.67;8.87;;;9.90;99.90;;;;;;4727968;30;20649;-87
2021/05/20 04:29:43;;;;;;;12.23;8.67;;;9.90;99.90;;;;;;4685820;30;20200;-88
2021/05/20 04:32:09;;;;;;;11.57;8.00;;;;;;;;;;4715568;30;20234;-87
2021/05/20 04:34:35;;;;;;;14.20;8.40;;;10.00;99.90;;;;;;4698839;30;20238;-87
2021/05/20 04:37:02;;;;;;;16.53;8.97;;;10.20;99.90;;;;;;4731074;30;20213;-88
2021/05/20 04:39:29;;;;;;;16.30;8.00;;;9.70;99.90;;;;;;4731659;30;20207;-88
2021/05/20 04:41:55;;;;;;;14.07;7.50;;;;;;;;;;4698574;30;20646;-87
2021/05/20 04:44:20;;;;;;;11.07;7.87;;;10.10;99.90;;;;;;4714992;30;20204;-87
2021/05/20 04:46:46;;;;;;;11.20;7.50;;;;;;;;;;4729586;30;20210;-86
2021/05/20 04:49:12;;;;;;;12.37;7.30;;;9.90;99.90;;;;;;4715596;30;20688;-88
2021/05/20 04:51:39;;;;;;;12.17;7.23;;;10.20;99.90;;;;;;4688423;30;20203;-88
2021/05/20 04:54:06;;;;;;;11.63;7.90;;;10.30;99.90;;;;;;4717083;30;20191;-86
2021/05/20 04:56:31;;;;;;;10.40;6.47;;;10.20;99.90;;;;;;4716980;30;20787;-86
2021/05/20 04:58:57;;;;;;;11.87;7.03;;;;;;;;;;4729293;30;20231;-86
2021/05/20 05:01:23;;;;;;;14.23;7.67;;;;;;;;;;4702596;30;20211;-85
2021/05/20 05:03:49;;;;;;;11.67;6.40;;;;;;;;;;4731747;30;20212;-86
2021/05/20 05:06:15;;;;;;;10.60;6.73;;;10.30;99.90;;;;;;4718125;30;20226;-87
2021/05/20 05:08:41;;;;;;;11.33;6.90;;;10.30;99.90;;;;;;4735384;30;20208;-87
2021/05/20 05:11:07;;;;;;;11.50;6.67;;;;;;;;;;4706059;30;20200;-87
2021/05/20 05:13:32;;;;;;;11.47;6.43;;;10.50;99.90;;;;;;4720601;30;20219;-86
2021/05/20 05:15:59;;;;;;;11.00;5.73;;;;;;;;;;4719204;30;20199;-86
2021/05/20 05:18:25;;;;;;;17.23;7.77;;;10.30;99.90;;;;;;4718584;30;20286;-87
2021/05/20 05:20:51;;;;;;;14.10;6.87;;;;;;;;;;4727626;30;20338;-88
2021/05/20 05:23:17;;;;;;;11.13;5.93;;;10.40;99.90;;;;;;4705965;30;20655;-88
2021/05/20 05:25:43;;;;;;;9.53;6.33;;;10.90;99.90;;;;;;4716529;30;20250;-89
2021/05/20 05:28:09;;;;;;;11.83;6.80;;;;;;;;;;4720249;30;20257;-86
2021/05/20 05:30:35;;;;;;;20.20;6.10;;;10.70;99.90;;;;;;4720330;30;20220;-87
2021/05/20 05:33:01;;;;;;;6.78;5.53;;;11.00;99.90;;;;;;4705661;30;20192;-89
2021/05/20 05:35:27;;;;;;;9.13;5.40;;;11.30;99.90;;;;;;4720227;30;20265;-88
2021/05/20 05:37:53;;;;;;;14.27;5.97;;;;;;;;;;4704952;30;20261;-87
2021/05/20 05:40:18;;;;;;;11.63;5.60;;;11.40;99.90;;;;;;4719926;30;20264;-84
2021/05/20 05:42:45;;;;;;;18.67;5.93;;;;;;;;;;4720090;30;20243;-88
2021/05/20 05:45:11;;;;;;;6.97;5.00;;;11.90;99.90;;;;;;4720040;30;20306;-86
2021/05/20 05:47:37;;;;;;;12.27;5.73;;;;;;;;;;4720139;30;20310;-87
2021/05/20 05:50:09;;;;;;;24.70;6.15;;;11.60;99.90;;;;;;4704993;30;20246;-86
2021/05/20 05:52:35;;;;;;;8.63;4.78;;;11.60;99.90;;;;;;4719632;30;20212;-88
2021/05/20 05:55:01;;;;;;;6.60;4.63;;;11.70;99.90;;;;;;4735434;30;20202;-88
2021/05/20 05:57:30;;;;;;;8.23;4.55;;;11.70;99.90;;;;;;4702312;30;20568;-88
2021/05/20 05:59:55;;;;;;;8.27;4.87;;;12.00;99.90;;;;;;4716356;30;20572;-89
2021/05/20 06:02:22;;;;;;;8.10;4.50;;;;;;;;;;4723092;30;20194;-89
2021/05/20 06:04:51;;;;;;;9.00;4.63;;;12.30;99.90;;;;;;4740905;30;20226;-88
2021/05/20 06:07:18;;;;;;;6.55;4.40;;;12.20;99.90;;;;;;4718912;30;20199;-89
2021/05/20 06:09:47;;;;;;;6.90;5.03;;;12.50;99.90;;;;;;4722702;30;20199;-88
2021/05/20 06:12:13;;;;;;;7.38;4.55;;;;;;;;;;4706032;30;20191;-88
2021/05/20 06:14:42;;;;;;;6.05;4.65;;;12.40;99.90;;;;;;4735036;30;20206;-88
2021/05/20 06:17:08;;;;;;;5.53;4.05;;;12.50;99.90;;;;;;4705451;30;20234;-88
2021/05/20 06:19:37;;;;;;;6.20;3.80;;;12.60;99.90;;;;;;4707985;30;20665;-87
2021/05/20 06:22:03;;;;;;;5.82;3.92;;;;;;;;;;4711801;30;20277;-89
2021/05/20 06:24:29;;;;;;;7.30;4.22;;;;;;;;;;4726897;30;20665;-89
2021/05/20 06:26:55;;;;;;;6.97;4.00;;;;;;;;;;4717337;30;20662;-89
2021/05/20 06:29:20;;;;;;;7.53;4.25;;;13.30;99.90;;;;;;4720190;30;20693;-89
2021/05/20 06:31:46;;;;;;;6.60;3.85;;;;;;;;;;4719722;30;20203;-89
2021/05/20 06:34:12;;;;;;;6.90;4.03;;;;;;;;;;4735593;30;20278;-89
2021/05/20 06:36:39;;;;;;;7.40;4.03;;;12.90;99.90;;;;;;4720677;30;20626;-87
2021/05/20 06:39:05;;;;;;;6.53;3.88;;;;;;;;;;4742361;30;20201;-88
2021/05/20 06:41:31;;;;;;;5.25;3.55;;;13.10;99.90;;;;;;4724700;30;20202;-89
2021/05/20 06:43:57;;;;;;;8.13;4.25;;;13.30;99.90;;;;;;4702248;30;20195;-89
2021/05/20 06:46:23;;;;;;;6.13;3.67;;;13.20;99.90;;;;;;4690187;30;20219;-89
2021/05/20 06:48:49;;;;;;;9.50;4.50;;;;;;;;;;4718828;30;20191;-87
2021/05/20 06:51:14;;;;;;;4.90;3.95;;;13.10;99.90;;;;;;4705154;30;20203;-88
2021/05/20 06:53:40;;;;;;;5.47;3.55;;;;;;;;;;4734284;30;20679;-88
2021/05/20 06:56:10;;;;;;;8.75;4.07;;;13.20;99.90;;;;;;4733114;30;20211;-87
2021/05/20 07:01:21;;;;;;;5.25;3.42;;;;;;;;;;4734305;30;20611;-89
2021/05/20 07:03:47;;;;;;;6.15;4.03;;;;;;;;;;4720153;30;20285;-89
2021/05/20 07:06:13;;;;;;;6.22;3.92;;;13.20;99.90;;;;;;4719737;30;20219;-88
2021/05/20 07:08:41;;;;;;;5.07;3.60;;;13.50;99.90;;;;;;4717272;30;20727;-90
2021/05/20 07:11:07;;;;;;;5.60;3.80;;;13.70;99.90;;;;;;4726150;30;20204;-89
2021/05/20 07:13:33;;;;;;;7.32;3.63;;;;;;;;;;4707707;30;20248;-89
2021/05/20 07:15:59;;;;;;;7.78;3.97;;;15.40;99.90;;;;;;4719685;30;20202;-87
2021/05/20 07:18:24;;;;;;;6.13;3.47;;;13.90;99.90;;;;;;4703688;30;20562;-86
2021/05/20 07:20:50;;;;;;;4.75;3.53;;;14.00;99.90;;;;;;4717009;30;20243;-86
2021/05/20 07:23:17;;;;;;;5.43;3.65;;;13.80;99.90;;;;;;4717347;30;20656;-85
2021/05/20 07:25:43;;;;;;;5.78;3.92;;;13.70;99.90;;;;;;4732589;30;20222;-86
2021/05/20 07:28:10;;;;;;;7.57;3.50;;;;;;;;;;4696354;30;20281;-85
2021/05/20 07:30:36;;;;;;;5.25;3.17;;;13.70;99.90;;;;;;4723554;30;20677;-84
2021/05/20 07:33:02;;;;;;;6.50;3.78;;;14.00;99.90;;;;;;4731226;30;20191;-85
2021/05/20 07:35:28;;;;;;;5.00;3.40;;;14.10;99.90;;;;;;4732035;30;20661;-86
2021/05/20 07:37:54;;;;;;;8.15;3.90;;;14.10;99.90;;;;;;4702061;30;20199;-85
2021/05/20 07:40:20;;;;;;;4.95;3.65;;;;;;;;;;4733852;30;20662;-85
2021/05/20 07:42:46;;;;;;;10.18;3.70;;;14.10;99.90;;;;;;4717788;30;20273;-85
2021/05/20 07:45:13;;;;;;;4.55;3.53;;;14.40;99.90;;;;;;4717888;30;20350;-85
2021/05/20 07:47:40;;;;;;;4.20;3.28;;;14.50;99.90;;;;;;4717762;30;20208;-85
2021/05/20 07:50:07;;;;;;;6.85;3.88;;;14.40;99.90;;;;;;4717460;30;20199;-85
2021/05/20 07:52:33;;;;;;;5.70;3.80;;;14.30;99.90;;;;;;4700409;30;20200;-84
2021/05/20 07:54:59;;;;;;;6.35;3.88;;;;;;;;;;4733665;30;20782;-88
2021/05/20 07:57:25;;;;;;;5.50;3.25;;;14.10;99.90;;;;;;4742523;30;20203;-87
2021/05/20 07:59:52;;;;;;;5.82;3.50;;;14.00;99.90;;;;;;4703168;30;20310;-85
2021/05/20 08:04:46;;;;;;;10.75;3.40;;;13.90;99.90;;;;;;4727540;30;20230;-85
2021/05/20 08:07:24;;;;;;;9.32;3.20;;;13.90;99.90;;;;;;4717720;30;20211;-83
2021/05/20 08:10:11;;;;;;;4.78;3.40;;;14.00;99.90;;;;;;4719668;30;20245;-85
2021/05/20 08:12:36;;;;;;;4.45;3.10;;;13.90;99.90;;;;;;4732338;30;20203;-85
2021/05/20 08:15:03;;;;;;;8.57;3.38;;;14.40;99.90;;;;;;4717842;30;20214;-85
2021/05/20 08:17:29;;;;;;;3.85;3.00;;;14.70;99.90;;;;;;4733229;30;20201;-84
2021/05/20 08:19:55;;;;;;;3.00;2.40;;;;;;;;;;4733610;30;20599;-84
2021/05/20 08:22:21;;;;;;;3.95;2.75;;;14.40;99.90;;;;;;4717725;30;20206;-84
2021/05/20 08:24:46;;;;;;;3.85;2.67;;;14.30;99.90;;;;;;4702802;30;20234;-84
2021/05/20 08:27:12;;;;;;;4.43;2.58;;;;;;;;;;4703408;30;20230;-85
2021/05/20 08:29:39;;;;;;;6.13;2.95;;;14.90;99.90;;;;;;4732419;30;20226;-85
2021/05/20 08:32:05;;;;;;;4.30;2.28;;;15.20;99.90;;;;;;4717927;30;20608;-85
2021/05/20 08:34:31;;;;;;;3.05;2.13;;;15.20;99.90;;;;;;4702852;30;20230;-84
2021/05/20 08:36:57;;;;;;;3.58;2.17;;;15.40;99.90;;;;;;4717148;30;20192;-85
2021/05/20 08:39:23;;;;;;;5.40;2.40;;;15.40;99.90;;;;;;4703774;30;20261;-84
2021/05/20 08:41:49;;;;;;;5.10;2.33;;;15.60;99.90;;;;;;4709755;30;20202;-84
2021/05/20 08:44:17;;;;;;;3.03;2.55;;;15.70;99.90;;;;;;4737134;30;20206;-86
2021/05/20 08:46:43;;;;;;;2.72;2.20;;;15.30;99.90;;;;;;4719823;30;20241;-84
2021/05/20 08:49:16;;;;;;;2.60;1.92;;;14.90;99.90;;;;;;4735201;30;20194;-85
2021/05/20 08:51:47;;;;;;;5.78;2.20;;;15.20;99.90;;;;;;4735186;30;20689;-85
2021/05/20 08:54:14;;;;;;;2.75;1.92;;;15.20;99.90;;;;;;4719389;30;20294;-86
2021/05/20 08:56:48;;;;;;;3.95;2.20;;;15.40;99.90;;;;;;4718588;30;20226;-85
2021/05/20 08:59:14;;;;;;;3.85;2.10;;;15.40;99.90;;;;;;4718908;30;20195;-86
2021/05/20 09:01:42;;;;;;;5.10;2.00;;;15.50;99.90;;;;;;4736241;30;20215;-86
2021/05/20 09:04:09;;;;;;;7.68;2.08;;;15.40;99.90;;;;;;4710624;30;20195;-84
2021/05/20 09:07:09;;;;;;;3.55;1.88;;;15.30;99.90;;;;;;4734784;30;20310;-85
2021/05/20 09:09:36;;;;;;;3.50;1.90;;;15.30;99.90;;;;;;4735503;30;20243;-84
2021/05/20 09:12:03;;;;;;;3.38;2.20;;;15.50;99.90;;;;;;4734910;30;20684;-85
2021/05/20 09:14:42;;;;;;;5.85;2.08;;;14.40;99.90;;;;;;4705970;30;20203;-85
2021/05/20 09:17:19;;;;;;;2.35;1.80;;;15.80;99.90;;;;;;4720346;30;20673;-86
2021/05/20 09:19:58;;;;;;;2.30;1.70;;;15.60;99.90;;;;;;4720284;30;20259;-85
2021/05/20 09:22:24;;;;;;;6.20;2.30;;;15.40;99.90;;;;;;4736074;30;20195;-84
2021/05/20 09:24:52;;;;;;;4.93;1.83;;;15.60;99.90;;;;;;4705691;30;20227;-85
2021/05/20 09:27:38;;;;;;;2.42;1.80;;;15.60;99.90;;;;;;4705683;30;20541;-85
2021/05/20 09:30:13;;;;;;;2.50;1.90;;;15.80;99.90;;;;;;4736209;30;20669;-88
2021/05/20 09:33:00;;;;;;;2.67;1.85;;;15.90;98.50;;;;;;4735538;30;20253;-86
2021/05/20 09:35:31;;;;;;;3.15;1.75;;;15.90;98.20;;;;;;4717447;30;21043;-86
2021/05/20 09:38:10;;;;;;;3.90;1.80;;;16.00;99.90;;;;;;4731695;30;20195;-86
2021/05/20 09:40:45;;;;;;;3.40;1.80;;;16.10;98.70;;;;;;4736012;30;20191;-86
2021/05/20 09:43:25;;;;;;;2.58;1.50;;;16.40;99.60;;;;;;4748303;30;20202;-86
2021/05/20 09:45:52;;;;;;;4.03;1.85;;;16.50;97.60;;;;;;4732413;30;20226;-86
2021/05/20 09:48:25;;;;;;;4.07;2.22;;;16.50;97.60;;;;;;4720553;30;20210;-87
2021/05/20 09:50:55;;;;;;;12.75;1.80;;;16.30;97.00;;;;;;4705405;30;20199;-85
2021/05/20 09:53:26;;;;;;;3.20;2.10;;;16.10;96.20;;;;;;4736495;30;20299;-87
2021/05/20 09:55:57;;;;;;;2.05;1.67;;;15.90;96.40;;;;;;4716995;30;20208;-87
2021/05/20 09:58:31;;;;;;;2.38;1.80;;;15.60;95.70;;;;;;4720827;30;20191;-87
2021/05/20 10:00:59;;;;;;;5.43;1.50;;;15.50;96.70;;;;;;4730471;30;20250;-89
2021/05/20 10:03:25;;;;;;;2.30;1.90;;;15.80;96.00;;;;;;4727267;30;20202;-85
2021/05/20 10:05:56;;;;;;;2.50;1.73;;;16.10;97.00;;;;;;4728437;30;20575;-87
2021/05/20 10:08:23;;;;;;;4.78;1.73;;;16.10;96.80;;;;;;4742943;30;20195;-87
2021/05/20 10:10:50;;;;;;;2.65;1.80;;;16.10;94.10;;;;;;4745789;30;20251;-87
2021/05/20 10:13:18;;;;;;;3.83;1.42;;;16.00;94.10;;;;;;4746053;30;20192;-86
2021/05/20 10:15:45;;;;;;;1.83;1.38;;;16.00;94.50;;;;;;4727884;30;20223;-87
2021/05/20 10:18:15;;;;;;;2.75;1.52;;;16.40;94.40;;;;;;4736431;30;20195;-86
2021/05/20 10:20:42;;;;;;;3.55;2.15;;;16.70;92.70;;;;;;4712848;30;20322;-86
2021/05/20 10:23:14;;;;;;;3.97;1.88;;;16.60;91.40;;;;;;4686327;30;20200;-85
2021/05/20 10:25:41;;;;;;;2.67;1.75;;;16.50;91.50;;;;;;4728592;30;20228;-86
2021/05/20 10:28:10;;;;;;;1.80;1.20;;;16.50;92.10;;;;;;4686303;30;20200;-86
2021/05/20 10:30:37;;;;;;;3.78;1.33;;;16.80;92.60;;;;;;4703201;30;20203;-86
2021/05/20 10:33:04;;;;;;;3.53;1.60;;;16.90;92.00;;;;;;4718524;30;20196;-85
2021/05/20 10:35:51;;;;;;;1.50;1.40;;;17.00;90.40;;;;;;4703100;30;20336;-85
2021/05/20 10:38:36;;;;;;;2.80;1.50;;;16.70;88.30;;;;;;4703149;30;20188;-85
2021/05/20 10:41:13;;;;;;;1.98;1.52;;;16.30;89.70;;;;;;4697029;30;20263;-85
2021/05/20 10:43:41;;;;;;;2.83;1.50;;;16.10;92.60;;;;;;4710168;30;20191;-85
2021/05/20 10:46:12;;;;;;;2.58;1.52;;;16.30;90.70;;;;;;4701708;30;20641;-85
2021/05/20 10:48:52;;;;;;;2.35;1.50;;;16.50;90.60;;;;;;4717559;30;20312;-86
2021/05/20 10:51:28;;;;;;;2.83;1.40;;;16.60;86.50;;;;;;4717903;30;20246;-85
2021/05/20 10:53:57;;;;;;;1.33;1.15;;;16.60;86.60;;;;;;4688081;30;20187;-85
2021/05/20 10:56:22;;;;;;;3.78;1.40;;;16.70;84.10;;;;;;4719300;30;20204;-86
2021/05/20 10:58:48;;;;;;;2.75;1.83;;;;;;;;;;4717863;30;20236;-85
2021/05/20 11:01:20;;;;;;;4.20;1.90;;;17.60;82.60;;;;;;4718891;30;20255;-86
2021/05/20 11:03:52;;;;;;;5.32;1.10;;;17.40;81.70;;;;;;4720153;30;20212;-86
2021/05/20 11:06:20;;;;;;;1.90;1.05;;;17.00;78.20;;;;;;4699315;30;20229;-86
2021/05/20 11:08:45;;;;;;;7.75;1.45;;;16.70;78.30;;;;;;4713787;30;20198;-89
2021/05/20 11:11:39;;;;;;;1.30;0.98;;;16.60;80.40;;;;;;4708078;30;20275;-86
2021/05/20 11:14:14;;;;;;;2.00;1.20;;;16.80;83.50;;;;;;4707181;30;20188;-86
2021/05/20 11:16:41;;;;;;;6.18;1.77;;;17.30;80.30;;;;;;4714161;30;20294;-87
2021/05/20 11:19:19;;;;;;;3.63;1.13;;;17.00;82.20;;;;;;4721036;30;20188;-87
2021/05/20 11:22:04;;;;;;;2.63;1.40;;;17.10;77.20;;;;;;4712149;30;20220;-88
2021/05/20 11:24:32;;;;;;;5.60;1.30;;;17.00;80.00;;;;;;4701632;30;20223;-89
2021/05/20 11:26:59;;;;;;;3.72;1.20;;;17.00;78.70;;;;;;4701720;30;20212;-89
2021/05/20 11:29:27;;;;;;;4.72;1.30;;;16.90;76.30;;;;;;4718844;30;20195;-89
2021/05/20 11:32:28;;;;;;;1.90;1.02;;;17.00;76.50;;;;;;4707115;30;20192;-85
2021/05/20 11:37:42;;;;;;;8.60;1.50;;;17.00;76.60;;;;;;4704186;30;20204;-87
2021/05/20 11:40:32;;;;;;;1.60;1.10;;;16.90;76.60;;;;;;4702302;30;20266;-87
2021/05/20 11:43:02;;;;;;;2.50;1.40;;;16.80;77.10;;;;;;4717387;30;20199;-86
2021/05/20 11:45:30;;;;;;;1.83;0.90;;;16.50;78.20;;;;;;4702974;30;20270;-87
2021/05/20 11:47:58;;;;;;;1.65;1.15;;;16.60;76.90;;;;;;4716790;30;20192;-87
2021/05/20 11:50:29;;;;;;;5.13;1.10;;;16.70;76.30;;;;;;4702110;30;20196;-86
2021/05/20 11:52:55;;;;;;;1.00;0.90;;;17.10;75.10;;;;;;4705958;30;20192;-87
2021/05/20 11:55:23;;;;;;;1.42;1.15;;;17.20;73.90;;;;;;4710150;30;20223;-86
2021/05/20 11:58:03;;;;;;;8.52;1.70;;;17.10;73.90;;;;;;4716933;30;20188;-88
2021/05/20 12:00:28;;;;;;;1.80;1.38;;;17.00;74.00;;;;;;4696291;30;20199;-86
2021/05/20 12:02:55;;;;;;;2.47;1.50;;;16.90;75.50;;;;;;4685984;30;20200;-86
2021/05/20 12:05:22;;;;;;;2.53;1.08;;;16.60;75.40;;;;;;4702526;30;20315;-86
2021/05/20 12:07:48;;;;;;;2.83;1.20;;;16.60;73.80;;;;;;4721219;30;20195;-87
2021/05/20 12:10:19;;;;;;;3.72;1.85;;;16.80;79.00;;;;;;4670907;30;20247;-87
2021/05/20 12:12:53;;;;;;;2.90;0.90;;;16.90;77.70;;;;;;4685998;30;20208;-87
2021/05/20 12:15:20;;;;;;;1.90;1.70;;;17.20;74.60;;;;;;4707438;30;20192;-86
2021/05/20 12:17:51;;;;;;;1.65;1.00;;;17.20;66.90;;;;;;4716024;30;20191;-87
2021/05/20 12:20:21;;;;;;;3.78;1.48;;;17.20;66.70;;;;;;4723244;30;20247;-87
2021/05/20 12:22:48;;;;;;;2.40;1.60;;;17.30;67.90;;;;;;4719572;30;20283;-87
2021/05/20 12:25:20;;;;;;;3.05;1.40;;;17.40;67.50;;;;;;4733976;30;20268;-88
2021/05/20 12:27:51;;;;;;;1.15;1.02;;;17.50;67.20;;;;;;4705290;30;20684;-88
2021/05/20 12:30:23;;;;;;;1.67;1.20;;;17.20;68.60;;;;;;4729761;30;20207;-88
2021/05/20 12:33:06;;;;;;;3.83;1.77;;;17.00;70.60;;;;;;4719337;30;20195;-88
2021/05/20 12:35:32;;;;;;;3.67;1.15;;;;;;;;;;4734119;30;20720;-87
2021/05/20 12:38:20;;;;;;;1.17;1.08;;;16.80;71.60;;;;;;4734159;30;20195;-90
2021/05/20 12:40:59;;;;;;;1.63;1.10;;;16.80;75.30;;;;;;4731035;30;20282;-86
2021/05/20 12:43:31;;;;;;;6.05;1.23;;;17.00;72.20;;;;;;4719342;30;20198;-87
2021/05/20 12:46:05;;;;;;;1.95;1.40;;;18.20;71.10;;;;;;4713395;30;20237;-87
2021/05/20 12:48:37;;;;;;;1.88;1.30;;;17.90;72.70;;;;;;4725177;30;20245;-86
2021/05/20 12:51:04;;;;;;;6.15;1.05;;;17.70;68.40;;;;;;4719188;30;20529;-87
2021/05/20 12:53:31;;;;;;;1.92;1.17;;;18.00;68.00;;;;;;4719372;30;20253;-86
2021/05/20 12:56:00;;;;;;;4.70;1.00;;;18.20;68.80;;;;;;4733713;30;20250;-87
2021/05/20 12:58:46;;;;;;;2.97;0.90;;;18.00;67.00;;;;;;4719551;30;20211;-85
2021/05/20 13:01:13;;;;;;;1.08;0.80;;;18.30;62.50;;;;;;4731165;30;20277;-86
2021/05/20 13:03:39;;;;;;;0.63;0.63;;;18.60;61.10;;;;;;4724851;30;20206;-86
2021/05/20 13:06:05;;;;;;;2.95;1.00;;;18.60;62.00;;;;;;4715684;30;20220;-86
2021/05/20 13:08:34;;;;;;;1.35;0.80;;;18.70;62.00;;;;;;4731379;30;20195;-86
2021/05/20 13:11:00;;;;;;;2.35;0.93;;;18.50;61.30;;;;;;4722141;30;20267;-87
2021/05/20 13:13:36;;;;;;;1.02;0.90;;;18.40;62.20;;;;;;4718218;30;20278;-88
2021/05/20 13:16:47;;;;;;;2.78;1.73;;;18.10;63.00;;;;;;4715425;30;20191;-86
2021/05/20 13:22:29;;;;;;;9.82;1.70;;;18.40;60.70;;;;;;4731424;30;20683;-87
2021/05/20 13:25:02;;;;;;;3.75;0.80;;;18.50;61.70;;;;;;4721796;30;20688;-86
2021/05/20 13:27:30;;;;;;;3.22;0.82;;;18.60;63.30;;;;;;4720541;30;20195;-85
2021/05/20 13:30:02;;;;;;;3.80;1.25;;;18.50;60.70;;;;;;4743049;30;20604;-86
2021/05/20 13:34:54;;;;;;;1.70;0.80;;;18.60;60.80;;;;;;4756399;30;20218;-87